Terminal Aerodrome Forecast
Issued by NWS

Home | Current Version | Previous Version | Text Only | Print | Product List | Glossary Off
Versions: 1 2 3 4 5 6 7 8 9 10 11 12 13 14 15 16 17

618
FTUS43 KMPX 221500 AAA
TAFRWF
TAF AMD
KRWF 221500Z 2215/2312 19015G22KT P6SM FEW100
     FM221900 19020G28KT P6SM SKC
     FM230200 18014G20KT P6SM SKC=

USA.gov is the U.S. government's official web portal to all federal, state and local government web resources and services.